Time;durP1;ratioP1;P1;durP2;ratioP2;P2;SDS_P1;SDS_P2;PMS_P1;PMS_P2;Temp;Humidity;BMP_temperature;BMP_pressure;BME280_temperature;BME280_humidity;BME280_pressure;Samples;Min_cycle;Max_cycle;Signal;HPM_P1;HPM_P2
2021/09/23 00:00:08;;;;;;;15.57;10.37;;;14.50;65.50;;;;;;5076382;28;20444;-73
2021/09/23 00:02:48;;;;;;;16.40;10.87;;;14.50;65.40;;;;;;5091475;22;21000;-69
2021/09/23 00:05:17;;;;;;;15.97;10.10;;;14.50;65.30;;;;;;5076333;28;20444;-68
2021/09/23 00:07:46;;;;;;;16.87;10.67;;;14.50;65.40;;;;;;5076283;28;20448;-68
2021/09/23 00:10:17;;;;;;;17.23;11.20;;;14.40;65.30;;;;;;5075919;28;20850;-68
2021/09/23 00:12:44;;;;;;;15.43;11.07;;;14.40;65.60;;;;;;5083639;28;20466;-68
2021/09/23 00:15:14;;;;;;;16.63;10.30;;;14.40;65.60;;;;;;5096304;28;20471;-68
2021/09/23 00:17:47;;;;;;;13.37;10.73;;;14.30;65.50;;;;;;5096394;28;20428;-68
2021/09/23 00:20:15;;;;;;;15.07;10.97;;;14.30;65.90;;;;;;5096314;28;20434;-68
2021/09/23 00:22:42;;;;;;;17.87;12.93;;;14.30;66.70;;;;;;5096202;28;20459;-68
2021/09/23 00:25:10;;;;;;;13.03;11.60;;;14.30;67.40;;;;;;5095944;28;20447;-68
2021/09/23 00:27:37;;;;;;;18.57;12.80;;;14.40;68.50;;;;;;5096265;28;20424;-68
2021/09/23 00:30:04;;;;;;;16.57;12.23;;;14.40;68.90;;;;;;5096109;28;20443;-68
2021/09/23 00:32:31;;;;;;;20.87;13.40;;;14.40;68.50;;;;;;5095686;28;20977;-68
2021/09/23 00:34:59;;;;;;;13.33;11.33;;;14.40;68.30;;;;;;5095980;28;20484;-68
2021/09/23 00:37:26;;;;;;;20.07;12.40;;;14.30;68.30;;;;;;5095940;28;20448;-68
2021/09/23 00:39:53;;;;;;;14.67;13.07;;;14.30;68.70;;;;;;5095772;28;20967;-68
2021/09/23 00:42:20;;;;;;;17.10;13.23;;;14.20;68.60;;;;;;5095817;28;20491;-68
2021/09/23 00:44:54;;;;;;;17.93;12.17;;;14.20;68.00;;;;;;5095516;28;20808;-68
2021/09/23 00:47:20;;;;;;;14.37;12.00;;;14.10;67.90;;;;;;5095490;28;20909;-68
2021/09/23 00:49:47;;;;;;;15.87;13.63;;;14.10;68.00;;;;;;5095746;28;20444;-68
2021/09/23 00:52:15;;;;;;;15.70;10.73;;;14.10;68.10;;;;;;5095646;28;20463;-68
2021/09/23 00:54:42;;;;;;;19.53;12.70;;;14.10;68.10;;;;;;5095596;28;20836;-68
2021/09/23 00:57:09;;;;;;;14.60;12.40;;;14.10;67.90;;;;;;5095599;28;20444;-68
2021/09/23 00:59:36;;;;;;;16.47;11.67;;;14.20;68.30;;;;;;5095569;28;20439;-68
2021/09/23 01:02:03;;;;;;;17.27;12.57;;;14.20;68.20;;;;;;5095383;28;20443;-68
2021/09/23 01:04:29;;;;;;;27.37;14.77;;;14.20;68.50;;;;;;5094582;28;20443;-68
2021/09/23 01:06:56;;;;;;;20.50;13.63;;;14.20;69.50;;;;;;5095460;28;20431;-68
2021/09/23 01:09:24;;;;;;;19.40;12.50;;;14.30;70.50;;;;;;5095308;28;20447;-68
2021/09/23 01:11:51;;;;;;;19.87;13.17;;;14.30;69.70;;;;;;5095262;28;20424;-68
2021/09/23 01:14:18;;;;;;;15.40;12.73;;;14.30;69.30;;;;;;5095251;28;20479;-68
2021/09/23 01:16:44;;;;;;;27.53;12.50;;;14.30;69.40;;;;;;5095179;28;20501;-68
2021/09/23 01:19:11;;;;;;;22.50;12.57;;;14.30;69.10;;;;;;5094852;28;20901;-68
2021/09/23 01:21:39;;;;;;;24.10;12.73;;;14.30;69.90;;;;;;5095086;28;20447;-68
2021/09/23 01:24:06;;;;;;;15.83;12.63;;;14.30;71.40;;;;;;5095003;28;20460;-68
2021/09/23 01:26:33;;;;;;;21.07;12.97;;;14.30;70.90;;;;;;5095286;28;20448;-68
2021/09/23 01:28:59;;;;;;;22.27;13.50;;;14.20;70.50;;;;;;5094924;28;20451;-68
2021/09/23 01:31:26;;;;;;;19.07;13.40;;;14.10;70.40;;;;;;5094580;28;20447;-68
2021/09/23 01:33:53;;;;;;;16.73;11.70;;;14.10;70.20;;;;;;5094419;28;20475;-68
2021/09/23 01:36:20;;;;;;;18.73;13.03;;;14.00;70.00;;;;;;5094775;28;20431;-68
2021/09/23 01:38:51;;;;;;;18.90;13.00;;;13.90;70.20;;;;;;5094804;28;20432;-68
2021/09/23 01:41:18;;;;;;;18.33;12.10;;;13.80;70.60;;;;;;5094803;28;20784;-68
2021/09/23 01:43:45;;;;;;;21.97;13.13;;;13.80;70.90;;;;;;5094650;28;20456;-68
2021/09/23 01:46:11;;;;;;;21.63;13.07;;;13.70;71.50;;;;;;5094600;28;20459;-68
2021/09/23 01:48:38;;;;;;;15.47;11.50;;;13.70;72.10;;;;;;5094586;28;20451;-68
2021/09/23 01:51:05;;;;;;;17.67;11.70;;;13.80;72.40;;;;;;5094511;28;20478;-68
2021/09/23 01:53:32;;;;;;;18.10;11.90;;;13.80;72.40;;;;;;5094427;28;20464;-68
2021/09/23 01:56:00;;;;;;;16.90;10.90;;;13.80;72.50;;;;;;5094560;28;20833;-68
2021/09/23 01:58:26;;;;;;;19.33;11.77;;;13.80;72.40;;;;;;5094431;28;20454;-68
2021/09/23 02:00:53;;;;;;;20.53;12.90;;;13.70;72.80;;;;;;5094401;28;20451;-68
2021/09/23 02:03:20;;;;;;;16.87;13.00;;;13.70;73.00;;;;;;5094122;28;20479;-68
2021/09/23 02:05:46;;;;;;;16.13;11.87;;;13.70;72.90;;;;;;5094308;28;20850;-68
2021/09/23 02:08:13;;;;;;;13.17;10.83;;;13.80;72.80;;;;;;5094254;28;20439;-68
2021/09/23 02:10:40;;;;;;;19.37;12.90;;;13.80;72.60;;;;;;5094114;28;20904;-68
2021/09/23 02:13:09;;;;;;;17.03;11.60;;;13.80;72.60;;;;;;5094132;28;20464;-68
2021/09/23 02:15:35;;;;;;;18.77;12.20;;;13.80;72.70;;;;;;5093944;28;20511;-68
2021/09/23 02:18:03;;;;;;;16.00;10.20;;;13.80;72.30;;;;;;5094136;28;20439;-68
2021/09/23 02:20:30;;;;;;;16.70;10.70;;;13.80;72.10;;;;;;5094646;28;20561;-68
2021/09/23 02:22:57;;;;;;;16.47;11.17;;;13.80;72.10;;;;;;5093969;28;20968;-68
2021/09/23 02:25:24;;;;;;;19.60;11.80;;;13.80;72.00;;;;;;5093981;28;20460;-68
2021/09/23 02:27:50;;;;;;;16.10;11.90;;;13.70;72.00;;;;;;5093943;28;20458;-68
2021/09/23 02:30:18;;;;;;;16.03;11.90;;;13.70;72.10;;;;;;5094447;28;20424;-68
2021/09/23 02:32:45;;;;;;;17.47;11.43;;;13.70;72.00;;;;;;5093522;28;21038;-68
2021/09/23 02:35:12;;;;;;;12.73;11.33;;;13.70;72.00;;;;;;5093755;28;20490;-68
2021/09/23 02:37:39;;;;;;;15.73;11.20;;;13.60;71.90;;;;;;5093760;28;20474;-68
2021/09/23 02:40:08;;;;;;;18.60;10.60;;;13.70;72.00;;;;;;5093800;28;20424;-68
2021/09/23 02:42:35;;;;;;;13.80;10.20;;;13.70;72.00;;;;;;5093348;28;20464;-68
2021/09/23 02:45:02;;;;;;;19.77;11.60;;;13.60;71.80;;;;;;5093670;28;20440;-68
2021/09/23 02:47:30;;;;;;;14.67;10.10;;;13.60;71.90;;;;;;5093710;28;20454;-68
2021/09/23 02:49:56;;;;;;;15.63;11.57;;;13.60;72.10;;;;;;5093344;28;20933;-68
2021/09/23 02:52:23;;;;;;;12.27;10.97;;;13.70;73.40;;;;;;5093236;28;20467;-68
2021/09/23 02:54:51;;;;;;;19.40;11.67;;;13.70;73.90;;;;;;5093568;28;20460;-68
2021/09/23 02:57:17;;;;;;;17.40;11.13;;;13.70;73.40;;;;;;5093572;28;20444;-68
2021/09/23 02:59:45;;;;;;;13.50;10.47;;;13.80;73.40;;;;;;5093584;28;20455;-68
2021/09/23 03:02:12;;;;;;;12.67;11.20;;;13.70;73.10;;;;;;5093183;28;20471;-68
2021/09/23 03:04:41;;;;;;;12.37;10.97;;;13.70;73.10;;;;;;5093503;28;20428;-68
2021/09/23 03:07:08;;;;;;;14.00;10.80;;;13.70;72.90;;;;;;5093173;28;20960;-68
2021/09/23 03:09:34;;;;;;;16.10;11.20;;;13.70;73.20;;;;;;5093145;28;20436;-68
2021/09/23 03:12:01;;;;;;;14.73;11.23;;;13.80;74.60;;;;;;5093328;28;20448;-68
2021/09/23 03:14:28;;;;;;;10.47;9.40;;;13.80;74.50;;;;;;5093378;28;20479;-68
2021/09/23 03:16:55;;;;;;;14.07;11.20;;;13.70;73.50;;;;;;5093359;28;20440;-68
2021/09/23 03:19:22;;;;;;;11.40;10.17;;;13.70;73.30;;;;;;5093036;28;20447;-68
2021/09/23 03:21:50;;;;;;;15.37;10.30;;;13.70;73.10;;;;;;5093353;28;20439;-68
2021/09/23 03:24:17;;;;;;;15.40;11.10;;;13.70;72.70;;;;;;5093333;28;20443;-68
2021/09/23 03:26:45;;;;;;;12.20;10.90;;;13.60;72.50;;;;;;5093329;28;20447;-68
2021/09/23 03:29:11;;;;;;;11.60;10.13;;;13.60;72.30;;;;;;5096947;28;20493;-68
2021/09/23 03:31:39;;;;;;;12.83;9.80;;;13.60;72.00;;;;;;5097229;28;20446;-68
2021/09/23 03:34:06;;;;;;;11.17;8.73;;;13.60;71.80;;;;;;5097055;28;20460;-68
2021/09/23 03:36:33;;;;;;;14.73;10.10;;;13.60;71.80;;;;;;5097120;28;20489;-68
2021/09/23 03:39:01;;;;;;;12.57;9.77;;;13.60;71.90;;;;;;5097096;28;20447;-68
2021/09/23 03:41:30;;;;;;;14.43;10.17;;;13.50;71.90;;;;;;5097024;28;20809;-68
2021/09/23 03:43:57;;;;;;;10.90;9.80;;;13.50;71.70;;;;;;5096952;28;20538;-68
2021/09/23 03:46:23;;;;;;;12.23;10.40;;;13.50;71.70;;;;;;5096927;28;20452;-68
2021/09/23 03:48:50;;;;;;;11.37;9.87;;;13.50;71.90;;;;;;5096624;28;20888;-68
2021/09/23 03:51:17;;;;;;;12.33;10.20;;;13.40;71.90;;;;;;5096923;28;20439;-68
2021/09/23 03:53:44;;;;;;;12.33;9.23;;;13.40;71.90;;;;;;5096788;28;20464;-68
2021/09/23 03:56:13;;;;;;;11.23;8.60;;;13.40;71.80;;;;;;5096757;28;20475;-68
2021/09/23 03:58:40;;;;;;;12.90;9.37;;;13.30;71.70;;;;;;5096800;28;20482;-68
2021/09/23 04:01:07;;;;;;;13.30;10.63;;;13.40;72.20;;;;;;5096427;28;20941;-68
2021/09/23 04:03:33;;;;;;;16.83;9.60;;;13.40;73.00;;;;;;5096251;28;20483;-69
2021/09/23 04:06:00;;;;;;;16.10;9.43;;;13.40;73.30;;;;;;5096294;28;20445;-68
2021/09/23 04:08:27;;;;;;;14.17;10.00;;;13.40;73.20;;;;;;5096555;28;20455;-68
2021/09/23 04:10:54;;;;;;;10.17;8.70;;;13.40;72.60;;;;;;5096498;28;20444;-68
2021/09/23 04:13:22;;;;;;;11.67;10.43;;;13.30;72.40;;;;;;5096427;28;20824;-68
2021/09/23 04:15:49;;;;;;;11.90;9.23;;;13.30;72.40;;;;;;5096352;28;20661;-68
2021/09/23 04:18:17;;;;;;;10.43;8.53;;;13.30;72.30;;;;;;5096412;28;20855;-68
2021/09/23 04:20:45;;;;;;;13.37;10.50;;;13.30;72.40;;;;;;5096319;28;20452;-68
2021/09/23 04:23:12;;;;;;;16.20;10.80;;;13.30;72.60;;;;;;5096168;28;20466;-68
2021/09/23 04:25:39;;;;;;;28.47;11.10;;;13.30;73.10;;;;;;5096201;28;20436;-68
2021/09/23 04:28:06;;;;;;;10.50;9.27;;;13.40;74.20;;;;;;5096164;28;20485;-68
2021/09/23 04:30:34;;;;;;;13.93;10.57;;;13.40;74.60;;;;;;5096088;28;20839;-68
2021/09/23 04:33:01;;;;;;;12.20;9.23;;;13.40;74.60;;;;;;5096000;28;20479;-68
2021/09/23 04:35:28;;;;;;;15.23;10.07;;;13.40;74.40;;;;;;5095965;28;20507;-68
2021/09/23 04:37:55;;;;;;;11.87;9.20;;;13.40;74.20;;;;;;5095890;28;20941;-68
2021/09/23 04:40:22;;;;;;;11.60;8.83;;;13.40;74.10;;;;;;5095042;28;20519;-68
2021/09/23 04:42:49;;;;;;;11.50;10.20;;;13.30;74.10;;;;;;5095548;28;20472;-68
2021/09/23 04:45:15;;;;;;;14.03;10.47;;;13.30;74.40;;;;;;5095840;28;20443;-68
2021/09/23 04:47:43;;;;;;;12.07;10.27;;;13.30;74.60;;;;;;5096446;28;20798;-68
2021/09/23 04:50:11;;;;;;;12.07;10.00;;;13.30;74.70;;;;;;5095817;28;20428;-68
2021/09/23 04:52:38;;;;;;;13.03;10.50;;;13.30;75.20;;;;;;5095357;28;20995;-68
2021/09/23 04:55:06;;;;;;;10.90;9.70;;;13.30;76.50;;;;;;5095710;28;20478;-68
2021/09/23 04:57:33;;;;;;;13.87;9.20;;;13.30;77.40;;;;;;5095723;28;20448;-68
2021/09/23 05:00:02;;;;;;;13.13;9.43;;;13.20;78.00;;;;;;5095759;28;20460;-68
2021/09/23 05:02:31;;;;;;;14.50;10.00;;;13.20;78.90;;;;;;5095301;28;20918;-68
2021/09/23 05:04:59;;;;;;;13.17;10.97;;;13.20;79.30;;;;;;5095558;28;20486;-68
2021/09/23 05:07:26;;;;;;;13.13;9.80;;;13.20;79.60;;;;;;5095750;28;20435;-68
2021/09/23 05:09:53;;;;;;;16.10;11.07;;;13.20;80.00;;;;;;5095394;28;20450;-68
2021/09/23 05:12:19;;;;;;;10.80;9.80;;;13.10;80.10;;;;;;5095431;28;20471;-67
2021/09/23 05:14:46;;;;;;;11.67;9.30;;;13.10;80.00;;;;;;5095324;28;20487;-67
2021/09/23 05:17:13;;;;;;;13.67;9.40;;;13.10;80.50;;;;;;5095943;28;20431;-68
2021/09/23 05:19:40;;;;;;;11.30;9.67;;;13.10;80.80;;;;;;5095307;28;20447;-67
2021/09/23 05:22:08;;;;;;;10.63;8.63;;;13.10;81.00;;;;;;5095201;28;20435;-68
2021/09/23 05:24:35;;;;;;;12.30;9.10;;;13.10;80.90;;;;;;5095431;28;20432;-67
2021/09/23 05:27:01;;;;;;;10.77;8.93;;;13.10;80.70;;;;;;5095191;28;20451;-67
2021/09/23 05:29:28;;;;;;;16.63;9.97;;;13.10;80.40;;;;;;5095028;28;20451;-67
2021/09/23 05:31:55;;;;;;;10.00;9.00;;;13.20;80.40;;;;;;5094866;28;20435;-68
2021/09/23 05:34:22;;;;;;;11.50;9.37;;;13.20;80.70;;;;;;5094828;28;20444;-68
2021/09/23 05:36:49;;;;;;;12.20;10.30;;;13.20;80.70;;;;;;5094835;28;20479;-68
2021/09/23 05:39:17;;;;;;;15.60;9.40;;;13.20;80.60;;;;;;5094854;28;20443;-67
2021/09/23 05:41:44;;;;;;;10.73;8.80;;;13.20;80.80;;;;;;5094783;28;20536;-67
2021/09/23 05:44:11;;;;;;;13.57;9.83;;;13.20;81.00;;;;;;5094730;28;20813;-67
2021/09/23 05:46:38;;;;;;;14.00;9.83;;;13.30;81.10;;;;;;5094734;28;20442;-67
2021/09/23 05:49:05;;;;;;;10.83;8.80;;;13.30;81.20;;;;;;5094633;28;20443;-67
2021/09/23 05:51:32;;;;;;;15.70;10.30;;;13.30;81.30;;;;;;5094383;28;20460;-67
2021/09/23 05:53:59;;;;;;;15.87;9.50;;;13.30;81.20;;;;;;5094596;28;20467;-68
2021/09/23 05:56:27;;;;;;;12.83;10.03;;;13.40;81.70;;;;;;5094555;28;20472;-68
2021/09/23 05:58:53;;;;;;;12.63;9.77;;;13.40;81.70;;;;;;5094530;28;20443;-68
2021/09/23 06:01:20;;;;;;;12.03;9.70;;;13.40;81.90;;;;;;5094448;28;20455;-68
2021/09/23 06:03:47;;;;;;;11.90;9.00;;;13.40;81.80;;;;;;5093981;28;20487;-68
2021/09/23 06:06:14;;;;;;;12.13;8.70;;;13.50;82.00;;;;;;5094357;28;20526;-68
2021/09/23 06:08:40;;;;;;;9.97;8.30;;;13.50;82.20;;;;;;5094365;28;20485;-68
2021/09/23 06:11:10;;;;;;;9.60;8.63;;;13.50;82.20;;;;;;5095138;28;20558;-68
2021/09/23 06:13:38;;;;;;;13.60;8.40;;;13.60;82.40;;;;;;5094111;28;20470;-68
2021/09/23 06:16:06;;;;;;;15.83;9.37;;;13.60;82.50;;;;;;5094095;28;20486;-68
2021/09/23 06:18:32;;;;;;;15.87;9.23;;;13.60;82.40;;;;;;5094118;28;20432;-68
2021/09/23 06:20:59;;;;;;;11.63;8.30;;;13.60;82.50;;;;;;5094089;28;20435;-68
2021/09/23 06:23:26;;;;;;;11.20;8.53;;;13.70;82.40;;;;;;5093970;28;20499;-68
2021/09/23 06:25:53;;;;;;;12.27;8.23;;;13.80;82.20;;;;;;5093955;28;20439;-68
2021/09/23 06:28:20;;;;;;;9.70;7.90;;;13.80;82.10;;;;;;5094099;28;20613;-68
2021/09/23 06:30:48;;;;;;;15.27;8.77;;;13.90;82.20;;;;;;5093883;28;20451;-68
2021/09/23 06:33:15;;;;;;;11.80;9.20;;;13.90;82.30;;;;;;5093852;28;20468;-68
2021/09/23 06:35:42;;;;;;;16.30;8.60;;;13.90;82.10;;;;;;5093492;28;20480;-69
2021/09/23 06:38:08;;;;;;;18.60;9.30;;;14.00;82.30;;;;;;5093803;28;20439;-68
2021/09/23 06:40:37;;;;;;;13.30;8.40;;;14.00;82.20;;;;;;5093758;28;20856;-68
2021/09/23 06:43:03;;;;;;;13.63;8.73;;;14.10;82.40;;;;;;5093323;28;20991;-68
2021/09/23 06:45:30;;;;;;;13.97;9.37;;;14.10;82.30;;;;;;5093795;28;20424;-68
2021/09/23 06:47:58;;;;;;;20.80;8.97;;;14.10;82.60;;;;;;5093725;28;20424;-68
2021/09/23 06:50:25;;;;;;;9.90;8.10;;;14.20;82.40;;;;;;5093668;28;20440;-69
2021/09/23 06:52:52;;;;;;;13.27;8.63;;;14.20;82.00;;;;;;5093662;28;20471;-68
2021/09/23 06:55:19;;;;;;;13.53;8.83;;;14.30;82.30;;;;;;5093559;28;20464;-68
2021/09/23 06:57:46;;;;;;;13.23;8.63;;;14.40;82.00;;;;;;5093363;28;20475;-69
2021/09/23 07:00:13;;;;;;;11.93;7.83;;;14.40;82.20;;;;;;5093723;28;20518;-68
2021/09/23 07:02:40;;;;;;;12.37;7.60;;;14.40;81.80;;;;;;5094319;28;20984;-69
2021/09/23 07:05:09;;;;;;;20.13;9.33;;;14.50;81.60;;;;;;5097774;28;20435;-69
2021/09/23 07:07:36;;;;;;;13.77;8.20;;;14.60;81.80;;;;;;5097739;28;20797;-68
2021/09/23 07:10:04;;;;;;;20.90;8.10;;;14.60;82.30;;;;;;5097686;28;20474;-68
2021/09/23 07:12:31;;;;;;;12.37;8.60;;;14.60;82.30;;;;;;5097627;28;20468;-68
2021/09/23 07:14:58;;;;;;;7.70;7.00;;;14.70;82.70;;;;;;5098453;28;20427;-68
2021/09/23 07:17:25;;;;;;;10.80;7.67;;;14.70;82.40;;;;;;5097547;28;20464;-68
2021/09/23 07:19:52;;;;;;;9.87;7.03;;;14.90;82.30;;;;;;5097217;28;20925;-68
2021/09/23 07:22:20;;;;;;;11.73;7.73;;;15.00;81.70;;;;;;5097497;28;20463;-68
2021/09/23 07:24:46;;;;;;;13.20;8.03;;;15.10;81.50;;;;;;5097086;28;20427;-68
2021/09/23 07:27:13;;;;;;;10.60;7.80;;;15.20;81.00;;;;;;5097348;28;20789;-68
2021/09/23 07:29:40;;;;;;;10.73;8.70;;;15.30;80.90;;;;;;5097315;28;20477;-69
2021/09/23 07:32:09;;;;;;;11.47;7.60;;;15.40;80.00;;;;;;5097267;28;20436;-68
2021/09/23 07:34:35;;;;;;;10.47;7.50;;;15.50;79.40;;;;;;5097263;28;20485;-68
2021/09/23 07:37:04;;;;;;;8.33;7.30;;;15.60;79.20;;;;;;5097067;28;20479;-68
2021/09/23 07:39:32;;;;;;;10.27;7.53;;;15.70;78.40;;;;;;5096858;28;20978;-68
2021/09/23 07:41:59;;;;;;;11.67;7.00;;;15.80;78.00;;;;;;5096902;28;20431;-69
2021/09/23 07:44:25;;;;;;;9.33;7.00;;;15.90;78.30;;;;;;5097159;28;20439;-68
2021/09/23 07:46:55;;;;;;;13.23;6.43;;;16.00;78.50;;;;;;5097025;28;20447;-69
2021/09/23 07:49:22;;;;;;;10.90;6.73;;;16.10;76.70;;;;;;5097202;28;20783;-68
2021/09/23 07:52:21;;;;;;;9.50;7.00;;;16.20;77.20;;;;;;5097288;28;20428;-68
2021/09/23 07:54:55;;;;;;;8.27;6.97;;;16.30;76.60;;;;;;5096672;28;20451;-68
2021/09/23 07:57:45;;;;;;;8.30;6.10;;;16.30;76.20;;;;;;5097360;28;20482;-68
2021/09/23 08:00:12;;;;;;;10.60;6.73;;;16.30;76.70;;;;;;5097280;28;20460;-67
2021/09/23 08:02:39;;;;;;;11.23;7.40;;;16.40;77.10;;;;;;5097021;28;20835;-67
2021/09/23 08:05:07;;;;;;;9.87;7.13;;;16.50;76.10;;;;;;5096950;28;20428;-68
2021/09/23 08:07:33;;;;;;;9.27;7.57;;;16.60;76.40;;;;;;5097575;28;20774;-68
2021/09/23 08:10:02;;;;;;;11.40;7.50;;;16.70;74.80;;;;;;5096793;28;20435;-68
2021/09/23 08:12:28;;;;;;;15.03;7.27;;;16.70;75.40;;;;;;5096463;28;20475;-68
2021/09/23 08:14:55;;;;;;;10.77;7.20;;;16.60;73.90;;;;;;5096543;28;20435;-68
2021/09/23 08:17:22;;;;;;;9.27;6.93;;;16.70;75.20;;;;;;5096163;28;21086;-67
2021/09/23 08:19:48;;;;;;;11.23;7.43;;;16.80;75.20;;;;;;5096409;28;20436;-68
2021/09/23 08:22:15;;;;;;;9.20;7.20;;;16.90;74.20;;;;;;5096281;28;20466;-69
2021/09/23 08:24:43;;;;;;;8.70;6.50;;;17.00;73.40;;;;;;5096055;28;20798;-71
2021/09/23 08:27:11;;;;;;;8.57;7.33;;;17.10;72.90;;;;;;5096423;28;20424;-68
2021/09/23 08:29:38;;;;;;;11.50;6.90;;;17.10;72.40;;;;;;5096583;28;20452;-69
2021/09/23 08:32:05;;;;;;;12.00;6.80;;;17.10;72.80;;;;;;5096186;28;20432;-69
2021/09/23 08:34:32;;;;;;;8.80;7.20;;;17.10;72.50;;;;;;5120998;22;20439;-74
2021/09/23 08:36:58;;;;;;;10.73;7.57;;;17.00;72.90;;;;;;5075549;28;20970;-74
2021/09/23 08:39:25;;;;;;;11.63;8.03;;;17.10;73.80;;;;;;5075907;28;20436;-74
2021/09/23 08:41:53;;;;;;;9.53;7.30;;;17.20;72.10;;;;;;5075666;28;20440;-74
2021/09/23 08:44:22;;;;;;;8.60;7.00;;;17.20;70.70;;;;;;5075899;28;20433;-76
2021/09/23 08:46:48;;;;;;;7.20;6.50;;;17.20;70.60;;;;;;5095255;28;20855;-74
2021/09/23 08:49:15;;;;;;;8.97;7.20;;;17.40;72.20;;;;;;5096085;28;20428;-75
2021/09/23 08:51:42;;;;;;;12.80;6.90;;;17.50;71.70;;;;;;5095966;28;20541;-76
2021/09/23 08:54:09;;;;;;;12.27;6.53;;;17.70;69.60;;;;;;5095861;28;20424;-75
2021/09/23 08:56:35;;;;;;;8.60;6.83;;;17.70;68.10;;;;;;5096719;28;20487;-75
2021/09/23 08:59:02;;;;;;;17.10;6.90;;;17.80;67.90;;;;;;5095714;28;20420;-75
2021/09/23 09:01:40;;;;;;;12.50;6.13;;;17.80;66.80;;;;;;5095654;28;20429;-76
2021/09/23 09:04:07;;;;;;;7.47;6.13;;;17.80;66.10;;;;;;5095666;28;20443;-75
2021/09/23 09:06:33;;;;;;;10.97;6.67;;;17.90;68.80;;;;;;5095729;28;20478;-75
2021/09/23 09:09:02;;;;;;;7.17;6.07;;;18.10;66.90;;;;;;5095526;28;20432;-75
2021/09/23 09:11:30;;;;;;;8.03;5.50;;;18.30;66.10;;;;;;5095500;28;20431;-75
2021/09/23 09:13:57;;;;;;;9.93;5.50;;;18.30;65.00;;;;;;5095645;28;20839;-76
2021/09/23 09:16:27;;;;;;;6.97;6.00;;;18.40;65.30;;;;;;5095650;28;20480;-77
2021/09/23 09:18:58;;;;;;;10.97;6.53;;;18.50;63.40;;;;;;5096309;28;20444;-76
2021/09/23 09:21:29;;;;;;;8.47;6.37;;;18.60;63.20;;;;;;5095888;28;20460;-77
2021/09/23 09:23:57;;;;;;;8.03;5.67;;;18.70;64.70;;;;;;5095904;28;20443;-77
2021/09/23 09:26:32;;;;;;;7.00;5.40;;;18.80;65.40;;;;;;5094753;28;20463;-77
2021/09/23 09:29:01;;;;;;;6.20;5.60;;;18.90;63.00;;;;;;5095329;28;20444;-77
2021/09/23 09:31:29;;;;;;;10.80;6.00;;;19.10;65.00;;;;;;5095163;28;20428;-76
2021/09/23 09:34:00;;;;;;;8.40;5.97;;;19.10;61.40;;;;;;5094995;28;20455;-77
2021/09/23 09:36:31;;;;;;;7.70;5.83;;;19.20;60.60;;;;;;5094415;28;20515;-77
2021/09/23 09:39:00;;;;;;;6.67;5.97;;;19.20;60.20;;;;;;5095743;28;20439;-77
2021/09/23 09:41:28;;;;;;;9.10;5.90;;;19.20;61.10;;;;;;5094881;28;20436;-77
2021/09/23 09:43:56;;;;;;;9.07;5.20;;;19.30;59.00;;;;;;5094453;28;20440;-76
2021/09/23 09:46:25;;;;;;;8.93;5.20;;;19.40;59.50;;;;;;5094742;28;20464;-76
2021/09/23 09:48:53;;;;;;;7.40;5.43;;;19.60;60.50;;;;;;5094394;28;20920;-76
2021/09/23 09:51:24;;;;;;;14.20;6.27;;;19.80;59.50;;;;;;5094434;28;20428;-76
2021/09/23 09:53:59;;;;;;;15.90;5.30;;;20.10;59.20;;;;;;5094345;28;20963;-77
2021/09/23 09:56:26;;;;;;;6.83;5.03;;;20.30;57.60;;;;;;5094427;28;20518;-76
2021/09/23 09:59:12;;;;;;;8.13;5.60;;;20.50;57.00;;;;;;5094490;28;20447;-77
2021/09/23 10:01:39;;;;;;;7.40;5.40;;;20.60;55.70;;;;;;5094887;28;20427;-77
2021/09/23 10:04:08;;;;;;;12.30;5.80;;;20.80;56.00;;;;;;5095262;28;20466;-77
2021/09/23 10:06:38;;;;;;;8.63;5.93;;;21.00;55.00;;;;;;5094450;28;20455;-77
2021/09/23 10:09:05;;;;;;;7.57;6.40;;;20.90;53.50;;;;;;5095423;28;20476;-77
2021/09/23 10:11:32;;;;;;;8.93;5.17;;;21.00;53.40;;;;;;5095747;28;20439;-77
2021/09/23 10:14:00;;;;;;;10.63;6.20;;;21.10;54.10;;;;;;5095550;28;20439;-77
2021/09/23 10:16:28;;;;;;;8.73;6.20;;;21.30;53.20;;;;;;5094587;28;20533;-77
2021/09/23 10:18:56;;;;;;;8.87;5.90;;;21.50;54.50;;;;;;5094154;28;20526;-77
2021/09/23 10:21:23;;;;;;;9.23;5.30;;;21.80;52.50;;;;;;5094102;28;20455;-77
2021/09/23 10:23:52;;;;;;;7.87;6.47;;;21.90;52.70;;;;;;5094227;28;20432;-77
2021/09/23 10:26:23;;;;;;;11.83;6.73;;;22.10;51.90;;;;;;5094002;28;20463;-77
2021/09/23 10:28:51;;;;;;;7.43;5.80;;;22.50;50.60;;;;;;5094085;28;20448;-77
2021/09/23 10:31:20;;;;;;;9.97;6.20;;;23.00;50.80;;;;;;5094465;28;20477;-75
2021/09/23 10:33:47;;;;;;;7.10;6.10;;;23.40;49.30;;;;;;5094753;28;20452;-76
2021/09/23 10:36:15;;;;;;;10.50;6.10;;;23.60;46.70;;;;;;5093824;28;20491;-75
2021/09/23 10:38:43;;;;;;;12.50;6.07;;;23.80;48.30;;;;;;5094216;28;20432;-75
2021/09/23 10:41:12;;;;;;;6.23;5.57;;;23.70;47.40;;;;;;5093898;28;20436;-76
2021/09/23 10:43:42;;;;;;;10.93;6.10;;;23.90;47.40;;;;;;5094336;28;20451;-75
2021/09/23 10:46:10;;;;;;;12.77;6.00;;;23.90;46.20;;;;;;5093795;28;20463;-75
2021/09/23 10:48:38;;;;;;;8.43;6.53;;;24.00;45.90;;;;;;5094024;28;20478;-74
2021/09/23 10:51:07;;;;;;;8.73;5.40;;;24.10;45.40;;;;;;5093839;28;20431;-74
2021/09/23 10:53:34;;;;;;;6.87;5.90;;;24.00;46.20;;;;;;5093785;28;20451;-74
2021/09/23 10:56:03;;;;;;;19.27;5.90;;;24.30;46.00;;;;;;5093733;28;20547;-75
2021/09/23 10:58:32;;;;;;;6.83;6.13;;;24.60;44.60;;;;;;5093702;28;20492;-75
2021/09/23 11:01:00;;;;;;;7.73;5.40;;;24.70;44.00;;;;;;5093614;28;20448;-74
2021/09/23 11:03:34;;;;;;;7.70;5.43;;;25.10;43.80;;;;;;5093710;28;20444;-75
2021/09/23 11:06:07;;;;;;;5.77;5.27;;;25.20;43.00;;;;;;5093663;28;20460;-75
2021/09/23 11:08:39;;;;;;;6.90;5.37;;;25.50;42.20;;;;;;5093637;28;20459;-75
2021/09/23 11:11:08;;;;;;;9.13;5.40;;;26.00;40.40;;;;;;5093385;28;20848;-74
2021/09/23 11:13:38;;;;;;;6.30;5.30;;;26.10;40.10;;;;;;5093580;28;20454;-75
2021/09/23 11:16:06;;;;;;;7.63;6.30;;;26.30;38.60;;;;;;5093470;28;20499;-77
2021/09/23 11:18:35;;;;;;;11.63;4.87;;;26.10;38.70;;;;;;5093491;28;20460;-75
2021/09/23 11:21:02;;;;;;;7.93;4.87;;;26.30;39.30;;;;;;5093104;28;20781;-75
2021/09/23 11:23:30;;;;;;;9.20;5.43;;;26.50;38.10;;;;;;5093534;28;20493;-75
2021/09/23 11:25:57;;;;;;;19.83;5.47;;;26.60;37.90;;;;;;5093462;28;20464;-76
2021/09/23 11:28:24;;;;;;;9.93;5.50;;;26.90;36.80;;;;;;5093502;28;20444;-76
2021/09/23 11:30:53;;;;;;;7.00;4.90;;;27.00;38.00;;;;;;5093488;28;20436;-75
2021/09/23 11:33:22;;;;;;;6.20;4.97;;;26.90;37.60;;;;;;5093366;28;20468;-76
2021/09/23 11:35:51;;;;;;;7.83;5.87;;;27.00;38.50;;;;;;5092982;28;20483;-75
2021/09/23 11:38:21;;;;;;;7.30;5.63;;;26.50;38.50;;;;;;5093233;28;20507;-74
2021/09/23 11:40:49;;;;;;;6.00;5.40;;;25.90;39.50;;;;;;5093318;28;20428;-76
2021/09/23 11:43:18;;;;;;;7.60;5.10;;;25.70;40.20;;;;;;5093038;28;20798;-75
2021/09/23 11:45:47;;;;;;;9.37;6.00;;;26.00;41.20;;;;;;5093249;28;20463;-75
2021/09/23 11:48:19;;;;;;;6.60;5.27;;;26.20;39.10;;;;;;5093618;28;20431;-75
2021/09/23 11:50:48;;;;;;;6.73;5.50;;;26.70;39.20;;;;;;5096785;28;20428;-76
2021/09/23 11:53:20;;;;;;;6.13;5.53;;;27.10;38.00;;;;;;5096895;28;20916;-77
2021/09/23 11:55:57;;;;;;;6.30;5.50;;;27.30;36.60;;;;;;5097377;28;20470;-75
2021/09/23 11:58:24;;;;;;;5.97;5.13;;;27.10;36.80;;;;;;5096899;28;20460;-75
2021/09/23 12:00:53;;;;;;;5.80;4.77;;;26.90;38.10;;;;;;5096797;28;20439;-76
2021/09/23 12:03:23;;;;;;;5.80;4.77;;;26.80;38.60;;;;;;5096855;28;20443;-74
2021/09/23 12:05:51;;;;;;;6.33;5.80;;;26.80;39.20;;;;;;5096733;28;20490;-75
2021/09/23 12:08:20;;;;;;;5.90;5.40;;;26.90;38.90;;;;;;5096722;28;20424;-75
2021/09/23 12:10:52;;;;;;;9.40;5.00;;;26.80;36.80;;;;;;5096884;28;20439;-75
2021/09/23 12:13:33;;;;;;;5.20;4.70;;;27.00;37.30;;;;;;5096651;28;20794;-75
2021/09/23 12:16:01;;;;;;;6.10;4.83;;;27.40;36.90;;;;;;5096465;28;21003;-75
2021/09/23 12:18:31;;;;;;;6.50;5.27;;;27.60;37.20;;;;;;5096539;28;20475;-75
2021/09/23 12:21:01;;;;;;;7.90;4.87;;;27.70;37.30;;;;;;5096484;28;20839;-76
2021/09/23 12:23:30;;;;;;;4.77;4.30;;;27.70;36.30;;;;;;5096424;28;20518;-77
2021/09/23 12:26:22;;;;;;;7.67;3.90;;;28.00;36.70;;;;;;5096092;28;20980;-76
2021/09/23 12:28:56;;;;;;;5.87;3.47;;;27.90;35.50;;;;;;5096291;28;20939;-76
2021/09/23 12:31:39;;;;;;;6.57;4.33;;;27.30;35.00;;;;;;5096728;28;20428;-76
2021/09/23 12:34:09;;;;;;;9.67;4.80;;;26.80;37.10;;;;;;5096325;28;20438;-76
2021/09/23 12:36:39;;;;;;;6.70;4.13;;;26.70;38.00;;;;;;5094701;28;21019;-75
2021/09/23 12:39:35;;;;;;;5.67;3.90;;;26.90;38.00;;;;;;5094929;28;20459;-75